Time;durP1;ratioP1;P1;durP2;ratioP2;P2;SDS_P1;SDS_P2;PMS_P1;PMS_P2;Temp;Humidity;BMP_temperature;BMP_pressure;BME280_temperature;BME280_humidity;BME280_pressure;Samples;Min_cycle;Max_cycle;Signal;HPM_P1;HPM_P2
2023/10/04 00:00:40;;;;;;;2.88;1.80;;;13.60;99.90;;;;;;5056998;28;20045;-70
2023/10/04 00:03:12;;;;;;;3.72;1.65;;;13.50;99.90;;;;;;5057052;28;20479;-69
2023/10/04 00:05:44;;;;;;;3.03;1.50;;;13.50;99.90;;;;;;5058518;28;20052;-69
2023/10/04 00:08:11;;;;;;;2.38;1.25;;;13.40;99.90;;;;;;5063362;28;20041;-68
2023/10/04 00:10:44;;;;;;;4.93;1.90;;;13.30;99.90;;;;;;5066071;28;20039;-68
2023/10/04 00:13:13;;;;;;;3.70;1.40;;;13.30;99.90;;;;;;5051973;28;20041;-69
2023/10/04 00:15:45;;;;;;;2.78;1.40;;;13.20;99.90;;;;;;5055479;28;20033;-70
2023/10/04 00:18:17;;;;;;;3.65;1.52;;;13.20;99.90;;;;;;5064664;28;20419;-68
2023/10/04 00:20:49;;;;;;;3.42;1.23;;;13.10;99.90;;;;;;5054912;28;20124;-69
2023/10/04 00:23:21;;;;;;;2.63;1.52;;;13.10;99.90;;;;;;5058056;28;20047;-69
2023/10/04 00:25:53;;;;;;;3.28;1.70;;;13.00;99.90;;;;;;5059824;28;20111;-68
2023/10/04 00:28:24;;;;;;;2.58;1.30;;;13.00;99.90;;;;;;5055697;28;20677;-68
2023/10/04 00:30:56;;;;;;;3.15;1.23;;;12.90;99.90;;;;;;5057545;28;20036;-70
2023/10/04 00:33:29;;;;;;;3.50;1.77;;;12.90;99.90;;;;;;5056295;28;20049;-69
2023/10/04 00:36:03;;;;;;;5.35;1.67;;;12.70;99.90;;;;;;5068153;28;20477;-70
2023/10/04 00:38:37;;;;;;;3.20;1.45;;;12.70;99.90;;;;;;5040451;28;20051;-69
2023/10/04 00:41:11;;;;;;;2.90;1.55;;;12.60;99.90;;;;;;5058833;28;20040;-69
2023/10/04 00:43:50;;;;;;;4.10;1.85;;;12.60;99.90;;;;;;5059569;28;20044;-68
2023/10/04 00:46:23;;;;;;;2.85;1.50;;;12.60;99.90;;;;;;5060771;28;20041;-70
2023/10/04 00:48:57;;;;;;;2.20;1.20;;;12.60;99.90;;;;;;5063934;28;20446;-70
2023/10/04 00:51:35;;;;;;;4.75;1.77;;;12.60;99.90;;;;;;5061287;28;20041;-70
2023/10/04 00:54:13;;;;;;;5.50;1.80;;;12.50;99.90;;;;;;5067373;28;20574;-70
2023/10/04 00:56:46;;;;;;;5.25;1.52;;;12.40;99.90;;;;;;5069798;28;20516;-68
2023/10/04 00:59:18;;;;;;;2.57;1.53;;;12.30;99.90;;;;;;5043933;28;20049;-70
2023/10/04 01:01:50;;;;;;;4.85;1.60;;;12.40;99.90;;;;;;5056487;28;20512;-68
2023/10/04 01:04:22;;;;;;;2.20;1.20;;;12.40;99.90;;;;;;5052387;28;20048;-69
2023/10/04 01:06:49;;;;;;;5.30;1.95;;;12.40;99.90;;;;;;5059958;28;20033;-69
2023/10/04 01:09:19;;;;;;;3.22;1.48;;;12.30;99.90;;;;;;5047792;28;20041;-69
2023/10/04 01:11:50;;;;;;;3.85;1.85;;;12.40;99.90;;;;;;5039964;28;20041;-69
2023/10/04 01:14:37;;;;;;;5.28;1.75;;;12.30;99.90;;;;;;5064566;28;20131;-70
2023/10/04 01:17:12;;;;;;;5.25;1.60;;;12.40;99.90;;;;;;5059907;28;20052;-67
2023/10/04 01:19:44;;;;;;;3.58;1.67;;;12.40;99.90;;;;;;5055615;28;20424;-68
2023/10/04 01:22:16;;;;;;;4.50;1.85;;;12.40;99.90;;;;;;5057486;28;20052;-68
2023/10/04 01:24:48;;;;;;;3.60;1.88;;;12.40;99.90;;;;;;5049583;28;20044;-69
2023/10/04 01:27:16;;;;;;;4.50;1.50;;;12.40;99.90;;;;;;5064945;28;20125;-68
2023/10/04 01:29:48;;;;;;;3.58;1.60;;;12.40;99.90;;;;;;5043654;28;20067;-68
2023/10/04 01:32:22;;;;;;;3.38;1.45;;;12.40;99.90;;;;;;5046698;28;20041;-69
2023/10/04 01:34:54;;;;;;;4.13;1.40;;;12.40;99.90;;;;;;5056251;28;20044;-68
2023/10/04 01:37:30;;;;;;;4.13;1.90;;;12.40;99.90;;;;;;5053570;28;20051;-68
2023/10/04 01:39:58;;;;;;;4.30;1.48;;;12.30;99.90;;;;;;5059596;28;20090;-70
2023/10/04 01:42:30;;;;;;;3.97;1.70;;;12.30;99.90;;;;;;5044630;28;20598;-68
2023/10/04 01:45:03;;;;;;;3.35;1.27;;;12.30;99.90;;;;;;5063137;28;20048;-69
2023/10/04 01:47:30;;;;;;;4.40;1.58;;;12.30;99.90;;;;;;5054368;28;20035;-67
2023/10/04 01:50:05;;;;;;;3.63;1.42;;;12.20;99.90;;;;;;5058860;28;20575;-68
2023/10/04 01:52:38;;;;;;;3.05;1.40;;;12.20;99.90;;;;;;5056486;28;20393;-69
2023/10/04 01:55:11;;;;;;;3.08;1.65;;;12.20;99.90;;;;;;5065972;28;20037;-68
2023/10/04 01:57:43;;;;;;;2.97;1.63;;;12.20;99.90;;;;;;5066245;28;20780;-69
2023/10/04 02:00:18;;;;;;;4.03;1.70;;;12.20;99.90;;;;;;5061020;28;20404;-68
2023/10/04 02:02:51;;;;;;;3.28;1.48;;;12.10;99.90;;;;;;5057687;28;20041;-69
2023/10/04 02:05:28;;;;;;;2.42;1.42;;;12.10;99.90;;;;;;5065814;28;20491;-69
2023/10/04 02:07:57;;;;;;;2.85;1.38;;;12.10;99.90;;;;;;5057544;28;20635;-70
2023/10/04 02:10:30;;;;;;;2.95;1.50;;;12.10;99.90;;;;;;5040694;28;20041;-69
2023/10/04 02:12:57;;;;;;;6.00;1.67;;;12.10;99.90;;;;;;5060844;28;20072;-68
2023/10/04 02:15:29;;;;;;;2.03;1.15;;;12.10;99.90;;;;;;5063264;28;20060;-68
2023/10/04 02:18:01;;;;;;;3.58;1.65;;;12.00;99.90;;;;;;5058366;28;20036;-68
2023/10/04 02:20:32;;;;;;;3.65;1.60;;;12.00;99.90;;;;;;5052007;28;20494;-68
2023/10/04 02:22:59;;;;;;;3.28;1.73;;;11.90;99.90;;;;;;5060416;28;20135;-68
2023/10/04 02:25:31;;;;;;;2.13;1.30;;;11.90;99.90;;;;;;5061197;28;20619;-68
2023/10/04 02:28:18;;;;;;;2.30;1.20;;;11.80;99.90;;;;;;5039777;28;20415;-69
2023/10/04 02:30:53;;;;;;;2.60;1.33;;;11.80;99.90;;;;;;5050713;28;20059;-68
2023/10/04 02:33:21;;;;;;;4.35;1.50;;;11.80;99.90;;;;;;5056707;28;20043;-68
2023/10/04 02:35:53;;;;;;;4.05;1.52;;;11.80;99.90;;;;;;5074562;28;20045;-68
2023/10/04 02:38:33;;;;;;;4.72;1.42;;;11.80;99.90;;;;;;5056767;28;20044;-68
2023/10/04 02:41:05;;;;;;;10.63;1.88;;;11.70;99.90;;;;;;5050964;28;20048;-68
2023/10/04 02:43:37;;;;;;;5.28;1.60;;;11.70;99.90;;;;;;5055088;28;20086;-69
2023/10/04 02:46:10;;;;;;;2.83;1.65;;;11.60;99.90;;;;;;5059714;28;20033;-68
2023/10/04 02:48:42;;;;;;;4.30;1.60;;;11.50;99.90;;;;;;5058173;28;20037;-70
2023/10/04 02:51:14;;;;;;;3.60;1.70;;;11.50;99.90;;;;;;5066746;28;20045;-68
2023/10/04 02:53:46;;;;;;;5.15;1.55;;;11.50;99.90;;;;;;5055705;28;20132;-69
2023/10/04 02:56:18;;;;;;;7.03;1.83;;;11.40;99.90;;;;;;5055377;28;20115;-68
2023/10/04 02:58:50;;;;;;;3.25;1.40;;;11.30;99.90;;;;;;5059909;28;20066;-68
2023/10/04 03:01:22;;;;;;;5.13;1.40;;;11.30;99.90;;;;;;5044227;28;20424;-68
2023/10/04 03:03:55;;;;;;;3.33;1.30;;;11.20;99.90;;;;;;5044081;28;20044;-68
2023/10/04 03:06:27;;;;;;;2.88;1.30;;;11.20;99.90;;;;;;5055493;28;20045;-69
2023/10/04 03:09:00;;;;;;;5.00;1.40;;;11.20;99.90;;;;;;5054351;28;20041;-68
2023/10/04 03:11:32;;;;;;;4.90;2.00;;;11.10;99.90;;;;;;5048057;28;20045;-68
2023/10/04 03:14:06;;;;;;;2.17;1.27;;;11.10;99.90;;;;;;5075193;28;20037;-68
2023/10/04 03:16:34;;;;;;;2.17;1.20;;;11.10;99.90;;;;;;5057239;28;20049;-69
2023/10/04 03:19:02;;;;;;;2.67;1.45;;;11.10;99.90;;;;;;5036584;28;20044;-68
2023/10/04 03:21:33;;;;;;;2.40;1.25;;;11.10;99.90;;;;;;5053530;28;20056;-68
2023/10/04 03:24:09;;;;;;;3.67;1.92;;;11.10;99.90;;;;;;5062682;28;20055;-67
2023/10/04 03:26:38;;;;;;;2.42;1.40;;;11.00;99.90;;;;;;5055899;28;20469;-69
2023/10/04 03:29:11;;;;;;;2.67;1.37;;;11.00;99.90;;;;;;5056471;28;20123;-70
2023/10/04 03:31:48;;;;;;;3.25;1.50;;;11.00;99.90;;;;;;5043071;28;20337;-69
2023/10/04 03:34:22;;;;;;;2.78;1.50;;;11.00;99.90;;;;;;5063234;28;20045;-68
2023/10/04 03:37:07;;;;;;;2.38;1.50;;;10.90;99.90;;;;;;5051323;28;20052;-68
2023/10/04 03:39:40;;;;;;;3.30;1.75;;;10.90;99.90;;;;;;5057600;28;20536;-69
2023/10/04 03:42:11;;;;;;;7.22;2.92;;;10.80;99.90;;;;;;5058654;28;20044;-68
2023/10/04 03:44:44;;;;;;;3.95;1.52;;;10.70;99.90;;;;;;5063380;28;20036;-69
2023/10/04 03:47:11;;;;;;;3.60;1.45;;;10.70;99.90;;;;;;5068572;28;20098;-69
2023/10/04 03:49:43;;;;;;;2.55;1.10;;;10.60;99.90;;;;;;5054666;28;20045;-68
2023/10/04 03:52:15;;;;;;;4.60;1.40;;;10.60;99.90;;;;;;5048762;28;20037;-68
2023/10/04 03:54:48;;;;;;;3.20;1.40;;;10.50;99.90;;;;;;5066530;28;20045;-68
2023/10/04 03:57:20;;;;;;;3.85;1.20;;;10.40;99.90;;;;;;5059333;28;20040;-68
2023/10/04 03:59:46;;;;;;;4.03;1.40;;;10.50;99.90;;;;;;5058463;28;20064;-68
2023/10/04 04:02:19;;;;;;;11.30;2.30;;;10.40;99.90;;;;;;5054675;28;20047;-68
2023/10/04 04:04:52;;;;;;;5.45;1.73;;;10.40;99.90;;;;;;5059283;28;20123;-69
2023/10/04 04:07:26;;;;;;;3.42;1.27;;;10.40;99.90;;;;;;5042622;28;20045;-69
2023/10/04 04:10:01;;;;;;;6.25;1.65;;;10.30;99.90;;;;;;5059214;28;20041;-68
2023/10/04 04:12:27;;;;;;;4.72;1.50;;;10.30;99.90;;;;;;5057391;28;20148;-69
2023/10/04 04:14:59;;;;;;;2.92;1.48;;;10.30;99.90;;;;;;5066743;28;20075;-68
2023/10/04 04:17:27;;;;;;;5.78;1.30;;;10.20;99.90;;;;;;5056176;28;20059;-68
2023/10/04 04:19:54;;;;;;;2.20;1.35;;;10.10;99.90;;;;;;5058365;28;20102;-69
2023/10/04 04:22:24;;;;;;;3.00;1.50;;;10.10;99.90;;;;;;5071338;28;20037;-69
2023/10/04 04:24:51;;;;;;;3.05;1.73;;;10.10;99.90;;;;;;5058519;28;20131;-68
2023/10/04 04:27:23;;;;;;;3.38;1.55;;;10.00;99.90;;;;;;5069057;28;20107;-69
2023/10/04 04:29:56;;;;;;;3.85;1.63;;;10.00;99.90;;;;;;5060201;28;20044;-68
2023/10/04 04:32:26;;;;;;;4.70;1.77;;;10.00;99.90;;;;;;5063605;28;20124;-68
2023/10/04 04:34:54;;;;;;;2.17;1.55;;;10.00;99.90;;;;;;5064106;28;20131;-69
2023/10/04 04:37:24;;;;;;;3.70;1.63;;;9.90;99.90;;;;;;5063003;28;20048;-69
2023/10/04 04:39:56;;;;;;;4.00;1.70;;;9.90;99.90;;;;;;5067024;28;20044;-69
2023/10/04 04:42:35;;;;;;;8.18;2.20;;;9.90;99.90;;;;;;5059091;28;20107;-69
2023/10/04 04:45:09;;;;;;;7.75;1.90;;;9.90;99.90;;;;;;5057956;28;20033;-68
2023/10/04 04:47:37;;;;;;;4.30;1.73;;;9.80;99.90;;;;;;5060123;28;20037;-68
2023/10/04 04:50:09;;;;;;;4.68;1.90;;;9.70;99.90;;;;;;5055317;28;20504;-68
2023/10/04 04:52:36;;;;;;;3.80;1.73;;;9.60;99.90;;;;;;5057053;28;20044;-68
2023/10/04 04:55:07;;;;;;;4.60;1.73;;;9.60;99.90;;;;;;5049199;28;20060;-70
2023/10/04 04:57:40;;;;;;;6.50;2.13;;;9.60;99.90;;;;;;5066469;28;20045;-68
2023/10/04 05:00:31;;;;;;;3.40;1.77;;;9.60;99.90;;;;;;5045091;28;20581;-68
2023/10/04 05:03:04;;;;;;;4.03;1.17;;;9.70;99.90;;;;;;5065538;28;20302;-68
2023/10/04 05:05:31;;;;;;;4.68;2.17;;;9.70;99.90;;;;;;5059227;28;20143;-68
2023/10/04 05:07:58;;;;;;;6.07;2.05;;;9.70;99.90;;;;;;5059798;28;20041;-68
2023/10/04 05:10:38;;;;;;;6.70;1.70;;;9.70;99.90;;;;;;5063105;28;20065;-68
2023/10/04 05:13:09;;;;;;;5.88;1.40;;;9.60;99.90;;;;;;5066954;28;20037;-68
2023/10/04 05:15:38;;;;;;;4.60;2.00;;;9.60;99.90;;;;;;5063110;28;20049;-68
2023/10/04 05:18:11;;;;;;;5.72;1.63;;;9.50;99.90;;;;;;5064911;28;20048;-68
2023/10/04 05:20:51;;;;;;;2.78;1.70;;;9.50;99.90;;;;;;5068440;28;20056;-69
2023/10/04 05:23:19;;;;;;;4.20;1.75;;;9.50;99.90;;;;;;5066432;28;20170;-68
2023/10/04 05:25:46;;;;;;;5.13;1.80;;;9.60;99.90;;;;;;5068396;28;20037;-68
2023/10/04 05:28:19;;;;;;;3.40;1.65;;;9.70;99.90;;;;;;5057947;28;20486;-68
2023/10/04 05:30:46;;;;;;;3.42;2.17;;;9.70;99.90;;;;;;5061306;28;20033;-68
2023/10/04 05:33:21;;;;;;;4.28;1.55;;;9.70;99.90;;;;;;5060856;28;20609;-68
2023/10/04 05:35:53;;;;;;;3.08;1.90;;;9.70;99.90;;;;;;5065714;28;20051;-68
2023/10/04 05:38:20;;;;;;;2.95;1.70;;;9.70;99.90;;;;;;5062508;28;20052;-70
2023/10/04 05:40:48;;;;;;;5.80;2.00;;;9.70;99.90;;;;;;5063643;28;20396;-68
2023/10/04 05:43:20;;;;;;;6.05;2.25;;;9.80;99.90;;;;;;5064581;28;20051;-67
2023/10/04 05:45:52;;;;;;;4.90;2.63;;;9.80;99.90;;;;;;5062086;28;20036;-68
2023/10/04 05:48:26;;;;;;;10.80;3.58;;;9.80;99.90;;;;;;5063567;28;20530;-67
2023/10/04 05:50:58;;;;;;;11.13;4.35;;;9.80;99.90;;;;;;5060415;28;20045;-68
2023/10/04 05:53:30;;;;;;;9.00;4.05;;;9.80;99.90;;;;;;5057804;28;20036;-68
2023/10/04 05:56:02;;;;;;;11.73;3.33;;;9.80;99.90;;;;;;5058579;28;20528;-68
2023/10/04 05:58:34;;;;;;;10.02;3.50;;;9.80;99.90;;;;;;5063858;28;20047;-67
2023/10/04 06:01:09;;;;;;;10.38;6.10;;;9.80;99.90;;;;;;5058740;28;20056;-68
2023/10/04 06:03:41;;;;;;;8.07;5.10;;;9.80;99.90;;;;;;5061610;28;20059;-68
2023/10/04 06:06:08;;;;;;;11.25;6.50;;;9.80;99.90;;;;;;5065706;28;20037;-66
2023/10/04 06:08:41;;;;;;;12.00;5.67;;;9.70;99.90;;;;;;5045842;28;20040;-69
2023/10/04 06:11:08;;;;;;;10.93;3.80;;;9.70;99.90;;;;;;5045187;28;20287;-67
2023/10/04 06:13:40;;;;;;;5.95;2.88;;;9.70;99.90;;;;;;5065617;28;20037;-68
2023/10/04 06:16:08;;;;;;;4.28;2.50;;;9.60;99.90;;;;;;5063549;28;20041;-69
2023/10/04 06:18:41;;;;;;;5.53;2.47;;;9.60;99.90;;;;;;5066053;28;20053;-68
2023/10/04 06:21:09;;;;;;;4.70;2.67;;;9.60;99.90;;;;;;5058608;28;20734;-67
2023/10/04 06:23:36;;;;;;;6.18;2.20;;;9.70;99.90;;;;;;5066299;28;20080;-68
2023/10/04 06:26:08;;;;;;;4.80;2.85;;;9.70;99.90;;;;;;5061178;28;20060;-68
2023/10/04 06:28:40;;;;;;;3.38;2.10;;;9.70;99.90;;;;;;5070669;28;20106;-69
2023/10/04 06:31:07;;;;;;;4.53;2.40;;;9.70;99.90;;;;;;5062350;28;20032;-68
2023/10/04 06:33:34;;;;;;;4.60;2.53;;;9.70;99.90;;;;;;5065934;28;20090;-68
2023/10/04 06:36:06;;;;;;;6.80;2.50;;;9.80;99.90;;;;;;5065462;28;20046;-68
2023/10/04 06:38:39;;;;;;;5.00;2.35;;;9.90;99.90;;;;;;5063100;28;20063;-68
2023/10/04 06:41:11;;;;;;;5.53;2.33;;;9.90;99.90;;;;;;5064099;28;20083;-68
2023/10/04 06:43:44;;;;;;;3.60;2.20;;;9.90;99.90;;;;;;5047862;28;20047;-68
2023/10/04 06:46:16;;;;;;;9.60;2.55;;;10.00;99.90;;;;;;5057583;28;20041;-69
2023/10/04 06:48:48;;;;;;;4.83;1.77;;;10.10;99.90;;;;;;5053570;28;20037;-68
2023/10/04 06:51:21;;;;;;;4.65;2.30;;;10.20;99.90;;;;;;5041693;28;20048;-69
2023/10/04 06:53:48;;;;;;;4.60;2.00;;;10.30;99.90;;;;;;5040572;28;20045;-68
2023/10/04 06:56:21;;;;;;;3.78;1.85;;;10.40;99.90;;;;;;5057065;28;20052;-68
2023/10/04 06:58:54;;;;;;;7.00;2.10;;;10.50;99.90;;;;;;5056590;28;20049;-68
2023/10/04 07:01:26;;;;;;;5.13;2.13;;;10.60;99.90;;;;;;5052973;28;20037;-69
2023/10/04 07:03:58;;;;;;;3.67;1.88;;;10.70;99.90;;;;;;5060195;28;20066;-68
2023/10/04 07:06:32;;;;;;;4.67;2.20;;;10.80;99.90;;;;;;5041545;28;20056;-68
2023/10/04 07:09:04;;;;;;;5.47;2.10;;;11.00;99.90;;;;;;5057509;28;20801;-68
2023/10/04 07:11:37;;;;;;;4.95;3.25;;;11.10;99.90;;;;;;5056427;28;20048;-68
2023/10/04 07:14:09;;;;;;;6.13;1.98;;;11.20;99.90;;;;;;5040632;28;20048;-68
2023/10/04 07:16:36;;;;;;;4.88;1.92;;;11.30;99.90;;;;;;5056522;28;20036;-68
2023/10/04 07:19:04;;;;;;;5.55;2.22;;;11.40;99.90;;;;;;5059962;28;20033;-68
2023/10/04 07:21:36;;;;;;;4.47;2.22;;;11.40;99.90;;;;;;5065560;28;20098;-67
2023/10/04 07:24:08;;;;;;;5.95;1.85;;;11.50;99.90;;;;;;5055978;28;20037;-68
2023/10/04 07:26:41;;;;;;;5.72;2.25;;;11.50;99.90;;;;;;5039160;28;20047;-68
2023/10/04 07:29:12;;;;;;;4.70;2.08;;;11.50;99.90;;;;;;5048762;28;20412;-69
2023/10/04 07:31:44;;;;;;;5.10;1.85;;;11.60;99.90;;;;;;5054869;28;20127;-68
2023/10/04 07:34:12;;;;;;;4.88;2.25;;;11.70;99.90;;;;;;5054262;28;20043;-70
2023/10/04 07:36:42;;;;;;;9.02;2.53;;;11.80;99.90;;;;;;5051375;28;20045;-68
2023/10/04 07:39:15;;;;;;;7.68;2.22;;;11.80;99.90;;;;;;5056293;28;20064;-68
2023/10/04 07:41:48;;;;;;;4.88;2.13;;;11.80;99.90;;;;;;5051674;28;20123;-68
2023/10/04 07:44:14;;;;;;;6.95;2.75;;;11.90;99.90;;;;;;5057198;28;20120;-69
2023/10/04 07:46:46;;;;;;;4.72;3.22;;;11.90;99.90;;;;;;5054250;28;20060;-68
2023/10/04 07:49:18;;;;;;;9.90;3.40;;;12.00;99.90;;;;;;5064317;28;20461;-70
2023/10/04 07:51:50;;;;;;;6.55;3.28;;;12.10;99.90;;;;;;5053303;28;20494;-69
2023/10/04 07:54:22;;;;;;;11.05;3.72;;;12.20;99.90;;;;;;5054266;28;20041;-68
2023/10/04 07:56:49;;;;;;;6.13;3.15;;;12.40;99.90;;;;;;5053256;28;20408;-68
2023/10/04 07:59:21;;;;;;;7.50;2.75;;;12.40;99.90;;;;;;5050997;28;20049;-68
2023/10/04 08:01:55;;;;;;;5.18;2.90;;;12.50;99.90;;;;;;5042174;28;20131;-68
2023/10/04 08:04:26;;;;;;;7.65;2.97;;;12.60;99.90;;;;;;5059794;28;20045;-68
2023/10/04 08:06:58;;;;;;;7.90;2.55;;;12.70;99.90;;;;;;5050984;28;20073;-68
2023/10/04 08:09:30;;;;;;;2.67;1.67;;;12.90;99.90;;;;;;5054982;28;20033;-68
2023/10/04 08:12:07;;;;;;;3.80;2.08;;;13.00;99.90;;;;;;5054992;28;20055;-68
2023/10/04 08:14:40;;;;;;;4.25;2.35;;;13.10;99.90;;;;;;5058120;28;20103;-68
2023/10/04 08:17:12;;;;;;;3.97;2.10;;;13.20;99.90;;;;;;5059081;28;20032;-69
2023/10/04 08:19:44;;;;;;;4.03;1.92;;;13.20;99.90;;;;;;5060721;28;20047;-68
2023/10/04 08:22:16;;;;;;;4.32;2.20;;;13.30;99.90;;;;;;5044772;28;20690;-68
2023/10/04 08:24:46;;;;;;;4.78;2.47;;;13.40;99.90;;;;;;5054622;28;20048;-67
2023/10/04 08:27:13;;;;;;;4.72;2.08;;;13.50;99.90;;;;;;5056568;28;20443;-70
2023/10/04 08:29:43;;;;;;;5.40;2.20;;;13.60;99.90;;;;;;5050764;28;20060;-72
2023/10/04 08:32:10;;;;;;;4.68;1.98;;;13.60;99.90;;;;;;5054201;28;20506;-69
2023/10/04 08:34:42;;;;;;;3.75;2.03;;;13.70;99.90;;;;;;5048082;28;20044;-69
2023/10/04 08:37:14;;;;;;;4.95;2.17;;;13.90;99.90;;;;;;5063621;28;20045;-69
2023/10/04 08:39:46;;;;;;;3.45;2.00;;;13.90;99.90;;;;;;5047596;28;20524;-67
2023/10/04 08:42:18;;;;;;;4.75;2.47;;;13.90;99.90;;;;;;5053448;28;20055;-69
2023/10/04 08:44:51;;;;;;;5.13;2.30;;;14.00;99.90;;;;;;5056456;28;20400;-72
2023/10/04 08:47:24;;;;;;;4.50;2.40;;;14.00;99.90;;;;;;5056959;28;20067;-68
2023/10/04 08:49:56;;;;;;;3.20;2.03;;;14.00;99.90;;;;;;5056961;28;20068;-69
2023/10/04 08:52:35;;;;;;;5.38;2.25;;;14.10;99.90;;;;;;5061060;28;20029;-69
2023/10/04 08:55:07;;;;;;;3.72;1.60;;;14.30;99.90;;;;;;5056476;28;20033;-68
2023/10/04 08:57:41;;;;;;;3.03;1.83;;;14.40;99.90;;;;;;5052343;28;20424;-67
2023/10/04 09:00:14;;;;;;;5.97;2.53;;;14.40;99.90;;;;;;5055566;28;20094;-74
2023/10/04 09:02:45;;;;;;;5.47;2.08;;;14.40;99.90;;;;;;5055816;28;20047;-75
2023/10/04 09:05:16;;;;;;;4.25;2.00;;;14.40;99.90;;;;;;5061345;28;20076;-70
2023/10/04 09:07:50;;;;;;;3.88;2.30;;;14.50;99.90;;;;;;5056085;28;20040;-68
2023/10/04 09:10:24;;;;;;;4.68;1.70;;;14.60;99.90;;;;;;5060054;28;20041;-67
2023/10/04 09:12:56;;;;;;;6.75;1.92;;;14.70;99.90;;;;;;5060600;28;20064;-68
2023/10/04 09:15:28;;;;;;;3.35;1.63;;;14.80;99.90;;;;;;5040917;28;20547;-69
2023/10/04 09:18:02;;;;;;;2.70;1.33;;;14.80;99.90;;;;;;5056456;28;20068;-68
2023/10/04 09:20:32;;;;;;;4.75;1.17;;;14.70;99.90;;;;;;5057609;28;20073;-70
2023/10/04 09:23:24;;;;;;;2.63;1.50;;;14.80;99.90;;;;;;5058757;28;20572;-69
2023/10/04 09:25:58;;;;;;;4.63;1.70;;;15.00;99.90;;;;;;5061701;28;20043;-68
2023/10/04 09:28:38;;;;;;;3.20;1.30;;;15.20;99.90;;;;;;5064144;28;20048;-69
2023/10/04 09:31:12;;;;;;;5.45;1.40;;;15.20;99.90;;;;;;5058670;28;20041;-67
2023/10/04 09:33:44;;;;;;;3.15;1.20;;;15.30;99.90;;;;;;5055453;28;20033;-69
2023/10/04 09:36:11;;;;;;;3.17;1.40;;;15.40;99.90;;;;;;5062642;28;20064;-70
2023/10/04 09:38:39;;;;;;;3.17;1.35;;;15.40;99.90;;;;;;5058901;28;20051;-68
2023/10/04 09:41:11;;;;;;;2.88;1.48;;;15.50;99.90;;;;;;5058046;28;20051;-69
2023/10/04 09:43:44;;;;;;;1.80;1.02;;;15.50;99.90;;;;;;5056996;28;20040;-68
2023/10/04 09:46:15;;;;;;;4.00;1.42;;;15.60;99.90;;;;;;5044648;28;20037;-70
2023/10/04 09:48:47;;;;;;;3.25;1.63;;;15.70;99.90;;;;;;5062600;28;20040;-70
2023/10/04 09:51:21;;;;;;;3.97;1.60;;;15.70;99.90;;;;;;5059160;28;20037;-69
2023/10/04 09:53:52;;;;;;;3.97;1.20;;;15.80;99.90;;;;;;5060152;28;20055;-68
2023/10/04 09:56:20;;;;;;;3.33;1.35;;;15.90;99.90;;;;;;5056716;28;20040;-69
2023/10/04 09:58:54;;;;;;;2.92;1.50;;;16.00;99.90;;;;;;5058238;28;20055;-68
2023/10/04 10:01:29;;;;;;;4.22;1.63;;;16.10;99.90;;;;;;5060747;28;20128;-70
2023/10/04 10:04:07;;;;;;;3.08;1.50;;;16.10;99.90;;;;;;5057664;28;20051;-67
2023/10/04 10:06:45;;;;;;;5.85;1.85;;;16.20;99.90;;;;;;5056849;28;20033;-70
2023/10/04 10:09:20;;;;;;;4.13;1.70;;;16.10;99.90;;;;;;5054297;28;20051;-68
2023/10/04 10:11:53;;;;;;;3.88;1.75;;;16.20;99.90;;;;;;5063262;28;20037;-68
2023/10/04 10:14:28;;;;;;;4.22;1.65;;;16.30;99.90;;;;;;5065427;28;20553;-68
2023/10/04 10:16:56;;;;;;;3.33;1.50;;;16.30;99.90;;;;;;5056479;28;20132;-70
2023/10/04 10:19:23;;;;;;;4.18;1.60;;;16.40;99.90;;;;;;5058224;28;20032;-68
2023/10/04 10:22:11;;;;;;;4.35;1.70;;;16.30;99.90;;;;;;5056864;28;20049;-68
2023/10/04 10:24:55;;;;;;;2.75;1.33;;;16.30;99.90;;;;;;5061503;28;20040;-69
2023/10/04 10:27:28;;;;;;;;;;;16.40;99.90;;;;;;5058091;28;20045;-70
2023/10/04 10:30:05;;;;;;;2.50;1.35;;;16.50;99.90;;;;;;5055876;28;19934;-68
2023/10/04 10:32:50;;;;;;;6.20;1.75;;;16.50;99.90;;;;;;5056122;28;20087;-69
2023/10/04 10:35:53;;;;;;;3.25;1.70;;;16.50;99.90;;;;;;5055737;28;20044;-68
2023/10/04 10:38:41;;;;;;;3.65;1.27;;;16.60;99.90;;;;;;5065265;28;20045;-70
2023/10/04 10:41:28;;;;;;;2.72;1.70;;;16.70;99.90;;;;;;5053341;28;20132;-71
2023/10/04 10:44:19;;;;;;;3.08;1.33;;;16.70;99.90;;;;;;5054863;28;20044;-70
2023/10/04 10:46:58;;;;;;;3.15;1.42;;;16.80;99.90;;;;;;5063274;28;20091;-68
2023/10/04 10:49:39;;;;;;;2.78;1.40;;;16.90;99.90;;;;;;5065314;28;20128;-69
2023/10/04 10:52:24;;;;;;;2.42;1.40;;;16.90;99.90;;;;;;5062891;28;20037;-70
2023/10/04 10:54:57;;;;;;;3.38;1.10;;;17.10;99.90;;;;;;5056659;28;20033;-68
2023/10/04 10:57:27;;;;;;;3.08;1.10;;;17.10;99.90;;;;;;5055974;28;20667;-67
2023/10/04 11:00:11;;;;;;;4.07;1.40;;;17.20;99.90;;;;;;5057917;28;20049;-67
2023/10/04 11:02:38;;;;;;;2.55;1.60;;;17.10;99.90;;;;;;5060992;28;20048;-68
2023/10/04 11:05:06;;;;;;;3.55;1.83;;;17.10;99.90;;;;;;5062930;28;20040;-70
2023/10/04 11:07:33;;;;;;;2.45;1.30;;;17.20;99.90;;;;;;5056622;28;20045;-68
2023/10/04 11:10:06;;;;;;;3.25;1.70;;;17.30;99.90;;;;;;5060349;28;20040;-68
2023/10/04 11:12:38;;;;;;;;;;;17.30;99.90;;;;;;5065548;28;20048;-69
2023/10/04 11:15:11;;;;;;;2.35;1.30;;;17.30;99.90;;;;;;5054818;28;19921;-67
2023/10/04 11:17:43;;;;;;;2.72;1.10;;;17.40;99.90;;;;;;5057732;28;20060;-67
2023/10/04 11:20:18;;;;;;;3.60;1.33;;;17.50;99.90;;;;;;5054671;28;20033;-68
2023/10/04 11:22:49;;;;;;;2.88;1.42;;;17.50;99.90;;;;;;5054389;28;20037;-68
2023/10/04 11:25:21;;;;;;;3.15;1.30;;;17.60;99.90;;;;;;5055826;28;20063;-69
2023/10/04 11:27:54;;;;;;;1.98;1.02;;;17.70;99.90;;;;;;5055783;28;20037;-67
2023/10/04 11:30:26;;;;;;;3.05;1.50;;;17.80;99.90;;;;;;5054164;28;20119;-67
2023/10/04 11:32:58;;;;;;;2.97;1.50;;;17.70;99.90;;;;;;5061728;28;20049;-69
2023/10/04 11:35:34;;;;;;;3.80;1.85;;;17.80;99.90;;;;;;5059359;28;20120;-69
2023/10/04 11:38:05;;;;;;;6.10;1.50;;;17.90;99.90;;;;;;5064996;28;20058;-68
2023/10/04 11:40:32;;;;;;;3.53;1.88;;;17.90;99.90;;;;;;5051169;28;20060;-68
2023/10/04 11:43:08;;;;;;;2.72;1.38;;;17.80;99.90;;;;;;5057211;28;20048;-68
2023/10/04 11:45:36;;;;;;;2.88;1.35;;;17.70;99.90;;;;;;5054994;28;20124;-67
2023/10/04 11:48:10;;;;;;;4.50;1.60;;;17.50;99.90;;;;;;5054893;28;20040;-67
2023/10/04 11:50:45;;;;;;;4.15;1.65;;;17.60;99.90;;;;;;5052289;28;20136;-68
2023/10/04 11:53:45;;;;;;;4.28;1.70;;;17.60;99.90;;;;;;5055153;28;20033;-69
2023/10/04 11:56:13;;;;;;;3.17;1.52;;;17.50;99.90;;;;;;5054437;28;20515;-69
2023/10/04 11:58:47;;;;;;;5.65;1.58;;;17.50;99.90;;;;;;5055221;28;20045;-68
2023/10/04 12:01:22;;;;;;;1.60;1.30;;;17.70;99.90;;;;;;5061568;28;20036;-68
2023/10/04 12:03:54;;;;;;;3.72;1.63;;;17.70;99.90;;;;;;5057356;28;20048;-70
2023/10/04 12:06:29;;;;;;;5.95;1.67;;;17.90;99.90;;;;;;5062061;28;20051;-68
2023/10/04 12:09:05;;;;;;;2.40;1.33;;;18.10;99.90;;;;;;5056973;28;20044;-69
2023/10/04 12:11:38;;;;;;;5.05;1.50;;;18.30;99.90;;;;;;5048401;28;20131;-69
2023/10/04 12:14:06;;;;;;;3.47;1.50;;;18.50;99.90;;;;;;5054688;28;20040;-67
2023/10/04 12:16:38;;;;;;;4.18;1.63;;;18.70;99.90;;;;;;5052085;28;20054;-70
2023/10/04 12:19:05;;;;;;;3.53;1.50;;;18.70;99.90;;;;;;5054891;28;20068;-68
2023/10/04 12:21:38;;;;;;;3.45;1.40;;;18.80;99.90;;;;;;5063996;28;20064;-67
2023/10/04 12:24:06;;;;;;;3.50;1.38;;;18.60;99.90;;;;;;5055897;28;20045;-68
2023/10/04 12:26:38;;;;;;;3.17;1.40;;;18.40;99.90;;;;;;5049864;28;20041;-68
2023/10/04 12:29:11;;;;;;;2.80;1.30;;;18.20;99.90;;;;;;5051893;28;20033;-66
2023/10/04 12:31:43;;;;;;;3.25;1.52;;;18.10;99.90;;;;;;5056351;28;20053;-70
2023/10/04 12:34:15;;;;;;;2.78;1.63;;;18.00;99.90;;;;;;5059584;28;20397;-68
2023/10/04 12:36:47;;;;;;;2.72;1.45;;;18.10;99.90;;;;;;5057598;28;20036;-69
2023/10/04 12:39:16;;;;;;;4.28;1.50;;;18.10;99.90;;;;;;5065468;28;20044;-69
2023/10/04 12:41:49;;;;;;;3.85;1.60;;;18.10;99.90;;;;;;5064633;28;20048;-68
2023/10/04 12:44:21;;;;;;;3.55;1.98;;;18.20;99.90;;;;;;5059244;28;20049;-68
2023/10/04 12:46:53;;;;;;;3.78;2.10;;;18.30;99.90;;;;;;5058230;28;20039;-68
2023/10/04 12:49:20;;;;;;;3.90;1.63;;;18.30;99.90;;;;;;5061515;28;20118;-68
2023/10/04 12:51:47;;;;;;;1.95;1.30;;;18.40;99.90;;;;;;5055156;28;20032;-67
2023/10/04 12:54:23;;;;;;;3.72;1.40;;;18.40;99.90;;;;;;5062017;28;20037;-69
2023/10/04 12:56:55;;;;;;;3.13;1.42;;;18.40;99.90;;;;;;5058478;28;20140;-69
2023/10/04 12:59:27;;;;;;;4.38;1.70;;;18.50;99.90;;;;;;5059937;28;20056;-68
2023/10/04 13:02:00;;;;;;;4.15;1.80;;;18.50;99.90;;;;;;5057817;28;20032;-68
2023/10/04 13:04:34;;;;;;;4.17;1.40;;;18.40;99.90;;;;;;5056420;28;20103;-68
2023/10/04 13:07:07;;;;;;;3.10;1.50;;;18.50;99.90;;;;;;5060607;28;20116;-66
2023/10/04 13:09:43;;;;;;;5.63;1.65;;;18.60;99.90;;;;;;5060740;28;20045;-69
2023/10/04 13:12:15;;;;;;;2.15;1.27;;;18.70;99.90;;;;;;5056203;28;20033;-69
2023/10/04 13:14:42;;;;;;;2.88;1.13;;;18.70;99.90;;;;;;5053469;28;20041;-68